Time;durP1;ratioP1;P1;durP2;ratioP2;P2;SDS_P1;SDS_P2;PMS_P1;PMS_P2;Temp;Humidity;BMP_temperature;BMP_pressure;BME280_temperature;BME280_humidity;BME280_pressure;Samples;Min_cycle;Max_cycle;Signal;HPM_P1;HPM_P2
2023/03/21 00:00:46;;;;;;;2.30;1.48;;;5.40;99.90;;;;;;5039768;28;20576;-36
2023/03/21 00:03:15;;;;;;;1.63;1.52;;;5.40;99.90;;;;;;5042482;28;20504;-36
2023/03/21 00:05:50;;;;;;;1.60;1.50;;;5.50;99.90;;;;;;5042250;28;20048;-35
2023/03/21 00:08:22;;;;;;;1.73;1.63;;;5.50;99.90;;;;;;5042168;28;20057;-36
2023/03/21 00:11:02;;;;;;;1.20;1.20;;;5.60;99.90;;;;;;5043670;28;20052;-36
2023/03/21 00:13:37;;;;;;;2.03;1.92;;;5.70;99.90;;;;;;5041416;28;20417;-35
2023/03/21 00:16:16;;;;;;;2.00;1.90;;;5.80;99.90;;;;;;5041853;28;20066;-35
2023/03/21 00:18:51;;;;;;;1.95;1.85;;;6.00;99.90;;;;;;5042795;28;20064;-36
2023/03/21 00:21:20;;;;;;;2.30;1.92;;;6.00;99.90;;;;;;5046241;28;20060;-36
2023/03/21 00:24:08;;;;;;;13.98;3.55;;;6.20;99.90;;;;;;5042654;28;20064;-35
2023/03/21 00:26:37;;;;;;;2.10;1.88;;;6.20;99.90;;;;;;5042690;28;20053;-35
2023/03/21 00:29:04;;;;;;;3.80;2.08;;;6.30;99.90;;;;;;5039444;28;20053;-36
2023/03/21 00:31:32;;;;;;;2.40;2.20;;;6.40;99.90;;;;;;5043833;28;20509;-36
2023/03/21 00:34:00;;;;;;;1.60;1.50;;;6.40;99.90;;;;;;5043873;28;20132;-36
2023/03/21 00:36:30;;;;;;;2.22;2.13;;;6.40;99.90;;;;;;5043044;28;20049;-36
2023/03/21 00:38:59;;;;;;;1.48;1.38;;;6.30;99.90;;;;;;5045707;28;20230;-36
2023/03/21 00:41:27;;;;;;;2.42;1.33;;;6.20;99.90;;;;;;5043141;28;20067;-35
2023/03/21 00:44:14;;;;;;;4.35;2.20;;;6.10;99.90;;;;;;5041516;28;20438;-36
2023/03/21 00:46:42;;;;;;;1.85;1.70;;;6.00;99.90;;;;;;5045029;28;20049;-36
2023/03/21 00:49:27;;;;;;;6.07;1.98;;;5.90;99.90;;;;;;5041499;28;20055;-36
2023/03/21 00:51:54;;;;;;;2.33;1.90;;;6.00;99.90;;;;;;5036135;28;20063;-36
2023/03/21 00:54:31;;;;;;;1.85;1.27;;;6.00;99.90;;;;;;5045237;28;20066;-36
2023/03/21 00:57:02;;;;;;;1.58;1.48;;;6.00;99.90;;;;;;5043393;28;20271;-35
2023/03/21 00:59:30;;;;;;;1.73;1.50;;;5.90;99.90;;;;;;5040944;28;20045;-36
2023/03/21 01:01:59;;;;;;;1.15;1.10;;;5.90;99.90;;;;;;5041526;28;20402;-35
2023/03/21 01:04:27;;;;;;;1.70;1.60;;;5.90;99.90;;;;;;5039727;28;20453;-36
2023/03/21 01:06:55;;;;;;;2.47;1.70;;;5.90;99.90;;;;;;5042095;28;20053;-36
2023/03/21 01:09:23;;;;;;;2.25;1.75;;;6.00;99.90;;;;;;5040630;28;20525;-36
2023/03/21 01:11:52;;;;;;;3.25;3.05;;;6.00;99.90;;;;;;5042960;28;20557;-36
2023/03/21 01:14:21;;;;;;;1.77;1.67;;;6.00;99.90;;;;;;5040543;28;20041;-36
2023/03/21 01:16:52;;;;;;;2.07;1.67;;;6.10;99.90;;;;;;5045407;28;20429;-36
2023/03/21 01:19:22;;;;;;;1.48;1.38;;;6.10;99.90;;;;;;5041431;28;20068;-36
2023/03/21 01:22:04;;;;;;;4.32;1.30;;;6.10;99.90;;;;;;5041411;28;20049;-36
2023/03/21 01:24:31;;;;;;;1.83;1.73;;;6.20;99.90;;;;;;5039864;28;20528;-36
2023/03/21 01:27:04;;;;;;;1.50;1.40;;;6.10;99.90;;;;;;5039857;28;20060;-36
2023/03/21 01:29:32;;;;;;;1.40;1.30;;;6.20;99.90;;;;;;5041016;28;20052;-36
2023/03/21 01:32:00;;;;;;;1.55;1.42;;;6.20;99.90;;;;;;5041800;28;20068;-36
2023/03/21 01:34:28;;;;;;;1.20;1.10;;;6.20;99.90;;;;;;5042274;28;20423;-36
2023/03/21 01:36:56;;;;;;;6.63;1.20;;;6.20;99.90;;;;;;5041862;28;20052;-35
2023/03/21 01:39:24;;;;;;;3.35;2.50;;;6.20;99.90;;;;;;5041578;28;20462;-35
2023/03/21 01:41:51;;;;;;;2.40;1.60;;;6.30;99.90;;;;;;5041485;28;20510;-36
2023/03/21 01:44:25;;;;;;;2.70;1.90;;;6.30;99.90;;;;;;5041052;28;20513;-35
2023/03/21 01:46:53;;;;;;;1.88;1.73;;;6.30;99.90;;;;;;5040408;28;20100;-36
2023/03/21 01:49:48;;;;;;;2.40;2.20;;;6.30;99.90;;;;;;5040028;28;20060;-36
2023/03/21 01:52:31;;;;;;;2.42;2.22;;;6.40;99.90;;;;;;5043126;28;20561;-36
2023/03/21 01:55:14;;;;;;;1.77;1.67;;;6.30;99.90;;;;;;5045405;28;20444;-35
2023/03/21 01:58:03;;;;;;;2.05;1.88;;;6.30;99.90;;;;;;5033811;28;20246;-36
2023/03/21 02:00:57;;;;;;;1.80;1.70;;;6.20;99.90;;;;;;5030095;28;20055;-36
2023/03/21 02:03:37;;;;;;;2.88;2.63;;;6.20;99.90;;;;;;5038531;28;20057;-36
2023/03/21 02:06:57;;;;;;;1.17;1.17;;;6.20;99.90;;;;;;5042476;28;20056;-36
2023/03/21 02:09:50;;;;;;;5.40;1.52;;;6.10;99.90;;;;;;5036122;28;20412;-35
2023/03/21 02:12:21;;;;;;;1.30;1.20;;;6.10;99.90;;;;;;5043710;28;20056;-36
2023/03/21 02:14:51;;;;;;;7.80;2.10;;;6.10;99.90;;;;;;5045801;28;20045;-36
2023/03/21 02:17:57;;;;;;;3.22;2.15;;;6.10;99.90;;;;;;5045892;28;20048;-36
2023/03/21 02:21:07;;;;;;;2.13;1.95;;;6.10;99.90;;;;;;5043504;28;20394;-36
2023/03/21 02:24:16;;;;;;;2.17;2.08;;;6.20;99.90;;;;;;5010567;28;20060;-35
2023/03/21 02:26:50;;;;;;;4.72;2.33;;;6.20;99.90;;;;;;5036268;28;20056;-36
2023/03/21 02:29:50;;;;;;;2.15;2.05;;;6.20;99.90;;;;;;5042545;28;20053;-36
2023/03/21 02:32:54;;;;;;;2.35;2.17;;;6.20;99.90;;;;;;5038668;28;20413;-36
2023/03/21 02:35:27;;;;;;;1.85;1.75;;;6.20;99.90;;;;;;5023455;28;20068;-36
2023/03/21 02:37:55;;;;;;;1.90;1.80;;;6.20;99.90;;;;;;5023229;28;20255;-36
2023/03/21 02:40:39;;;;;;;1.17;1.17;;;6.10;99.90;;;;;;5023806;28;20064;-36
2023/03/21 02:43:13;;;;;;;1.52;1.42;;;6.00;99.90;;;;;;5036805;28;20057;-36
2023/03/21 02:45:56;;;;;;;1.13;1.13;;;6.00;99.90;;;;;;5042655;28;20060;-36
2023/03/21 02:48:30;;;;;;;1.33;1.23;;;6.00;99.90;;;;;;5044271;28;20061;-36
2023/03/21 02:51:20;;;;;;;2.08;1.98;;;6.00;99.90;;;;;;5041827;28;20075;-36
2023/03/21 02:53:57;;;;;;;4.63;1.40;;;5.90;99.90;;;;;;5042723;28;20052;-37
2023/03/21 02:56:48;;;;;;;1.77;1.67;;;5.90;99.90;;;;;;5043284;28;20064;-36
2023/03/21 02:59:17;;;;;;;1.08;1.08;;;5.90;99.90;;;;;;5041711;28;20079;-36
2023/03/21 03:01:46;;;;;;;1.52;1.17;;;6.00;99.90;;;;;;5042237;28;20541;-36
2023/03/21 03:04:26;;;;;;;1.20;1.17;;;6.00;99.90;;;;;;5043597;28;20057;-36
2023/03/21 03:07:17;;;;;;;1.25;1.17;;;6.00;99.90;;;;;;5042386;28;20064;-36
2023/03/21 03:09:59;;;;;;;1.25;1.25;;;6.00;99.90;;;;;;5036876;28;20041;-36
2023/03/21 03:12:35;;;;;;;2.67;1.58;;;6.00;99.90;;;;;;5022166;28;20065;-35
2023/03/21 03:15:17;;;;;;;1.60;1.50;;;6.00;99.90;;;;;;5020858;28;20053;-36
2023/03/21 03:18:05;;;;;;;2.63;2.22;;;6.00;99.90;;;;;;5026609;28;20509;-36
2023/03/21 03:20:56;;;;;;;4.25;2.63;;;6.10;99.90;;;;;;5044291;28;20455;-37
2023/03/21 03:23:41;;;;;;;2.03;1.90;;;6.20;99.90;;;;;;5022866;28;20057;-36
2023/03/21 03:26:16;;;;;;;4.97;1.60;;;6.20;99.90;;;;;;5017562;28;20072;-37
2023/03/21 03:28:49;;;;;;;2.85;2.60;;;6.20;99.90;;;;;;5014604;28;20065;-36
2023/03/21 03:31:24;;;;;;;2.38;2.17;;;6.20;99.90;;;;;;5014388;28;20080;-36
2023/03/21 03:34:02;;;;;;;1.27;1.20;;;6.10;99.90;;;;;;5015325;28;20057;-36
2023/03/21 03:36:34;;;;;;;1.80;1.70;;;6.20;99.90;;;;;;5018628;28;20053;-36
2023/03/21 03:39:12;;;;;;;1.07;1.03;;;6.20;99.90;;;;;;5020639;28;20060;-36
2023/03/21 03:41:49;;;;;;;1.73;1.67;;;6.20;99.90;;;;;;5014923;28;20041;-35
2023/03/21 03:44:40;;;;;;;1.42;1.33;;;6.20;99.90;;;;;;5021790;28;20061;-36
2023/03/21 03:47:12;;;;;;;2.03;1.92;;;6.20;99.90;;;;;;5034208;28;20075;-36
2023/03/21 03:50:07;;;;;;;3.40;1.73;;;6.20;99.90;;;;;;5044520;28;20055;-36
2023/03/21 03:52:58;;;;;;;1.98;1.27;;;6.20;99.90;;;;;;5040277;28;20060;-36
2023/03/21 03:55:33;;;;;;;1.60;1.50;;;6.20;99.90;;;;;;5043138;28;20053;-36
2023/03/21 03:58:08;;;;;;;2.47;2.28;;;6.20;99.90;;;;;;5041487;28;20614;-36
2023/03/21 04:00:51;;;;;;;1.73;1.63;;;6.20;99.90;;;;;;5037881;28;20076;-35
2023/03/21 04:03:19;;;;;;;2.30;1.90;;;6.30;99.90;;;;;;5039454;28;20045;-36
2023/03/21 04:05:48;;;;;;;3.28;1.25;;;6.30;99.90;;;;;;5045410;28;20045;-36
2023/03/21 04:08:16;;;;;;;4.80;2.58;;;6.20;99.90;;;;;;5040311;28;20501;-36
2023/03/21 04:10:49;;;;;;;1.98;1.88;;;6.20;99.90;;;;;;5030326;28;20505;-36
2023/03/21 04:13:17;;;;;;;4.25;2.13;;;6.30;99.90;;;;;;5021046;28;20061;-36
2023/03/21 04:16:01;;;;;;;1.73;1.63;;;6.30;99.90;;;;;;5039176;28;20057;-36
2023/03/21 04:18:29;;;;;;;3.00;1.95;;;6.30;99.90;;;;;;5036896;28;20088;-36
2023/03/21 04:20:57;;;;;;;2.08;1.95;;;6.30;99.90;;;;;;5040512;28;20056;-35
2023/03/21 04:23:28;;;;;;;1.85;1.75;;;6.30;99.90;;;;;;5030469;28;20056;-36
2023/03/21 04:25:56;;;;;;;2.47;2.30;;;6.30;99.90;;;;;;5039941;28;20056;-35
2023/03/21 04:28:35;;;;;;;2.35;2.00;;;6.30;99.90;;;;;;5033917;28;20045;-36
2023/03/21 04:31:36;;;;;;;;;;;6.40;99.90;;;;;;5020528;28;20049;-36
2023/03/21 04:34:12;;;;;;;12.82;1.83;;;6.40;99.90;;;;;;5037767;28;19924;-36
2023/03/21 04:36:48;;;;;;;5.90;2.38;;;6.30;99.90;;;;;;5042875;28;20059;-36
2023/03/21 04:39:16;;;;;;;;;;;6.30;99.90;;;;;;5041258;28;20059;-36
2023/03/21 04:41:47;;;;;;;2.10;2.00;;;6.30;99.90;;;;;;5044832;28;19924;-37
2023/03/21 04:44:16;;;;;;;5.05;1.38;;;6.30;99.90;;;;;;5044591;28;20052;-36
2023/03/21 04:46:44;;;;;;;1.38;1.27;;;6.30;99.90;;;;;;5044529;28;20402;-36
2023/03/21 04:49:12;;;;;;;2.25;1.70;;;6.30;99.90;;;;;;5044940;28;20052;-35
2023/03/21 04:51:44;;;;;;;3.60;3.28;;;6.20;99.90;;;;;;5037502;28;20060;-36
2023/03/21 04:54:13;;;;;;;6.28;2.30;;;6.20;99.90;;;;;;5040647;28;20449;-36
2023/03/21 04:56:41;;;;;;;1.67;1.58;;;6.20;99.90;;;;;;5042558;28;20072;-36
2023/03/21 04:59:12;;;;;;;1.80;1.70;;;6.20;99.90;;;;;;5041912;28;20049;-36
2023/03/21 05:01:42;;;;;;;2.00;1.90;;;6.20;99.90;;;;;;5036930;28;20049;-36
2023/03/21 05:04:12;;;;;;;1.83;1.73;;;6.20;99.90;;;;;;5041615;28;20049;-36
2023/03/21 05:06:43;;;;;;;3.03;2.67;;;6.20;99.90;;;;;;5040784;28;20386;-36
2023/03/21 05:09:12;;;;;;;3.28;3.03;;;6.30;99.90;;;;;;5042700;28;20067;-35
2023/03/21 05:11:40;;;;;;;2.80;2.60;;;6.20;99.90;;;;;;5042637;28;20041;-36
2023/03/21 05:14:14;;;;;;;1.15;1.15;;;6.10;99.90;;;;;;5038679;28;20056;-36
2023/03/21 05:16:47;;;;;;;25.25;4.30;;;6.20;99.90;;;;;;5043203;28;20064;-38
2023/03/21 05:19:17;;;;;;;7.53;3.17;;;6.10;99.90;;;;;;5040324;28;20045;-37
2023/03/21 05:21:48;;;;;;;;;;;6.10;99.90;;;;;;5040638;28;20048;-36
2023/03/21 05:24:21;;;;;;;9.27;3.47;;;6.10;99.90;;;;;;5044636;28;19932;-36
2023/03/21 05:26:51;;;;;;;11.07;3.53;;;6.10;99.90;;;;;;5041602;28;20049;-36
2023/03/21 05:29:22;;;;;;;12.35;4.10;;;6.10;99.90;;;;;;5042100;28;20057;-36
2023/03/21 05:32:00;;;;;;;6.03;1.98;;;6.20;99.90;;;;;;5038824;28;20288;-36
2023/03/21 05:34:28;;;;;;;2.90;2.70;;;6.10;99.90;;;;;;5045986;28;20048;-36
2023/03/21 05:36:56;;;;;;;3.60;3.30;;;6.10;99.90;;;;;;5043068;28;20056;-36
2023/03/21 05:39:26;;;;;;;2.87;2.60;;;6.10;99.90;;;;;;5042913;28;20049;-36
2023/03/21 05:42:15;;;;;;;3.10;2.90;;;6.10;99.90;;;;;;5043260;28;20048;-36
2023/03/21 05:44:44;;;;;;;3.63;3.05;;;6.10;99.90;;;;;;5042158;28;20068;-36
2023/03/21 05:47:14;;;;;;;2.60;2.38;;;6.10;99.90;;;;;;5040831;28;20521;-35
2023/03/21 05:49:46;;;;;;;2.95;2.67;;;6.20;99.90;;;;;;5044932;28;20053;-36
2023/03/21 05:52:15;;;;;;;2.15;2.00;;;6.20;99.90;;;;;;5044903;28;20059;-37
2023/03/21 05:54:44;;;;;;;2.20;1.90;;;6.20;99.90;;;;;;5037679;28;20451;-36
2023/03/21 05:57:12;;;;;;;2.45;2.25;;;6.20;99.90;;;;;;5044316;28;20127;-37
2023/03/21 06:00:10;;;;;;;8.27;2.78;;;6.20;99.90;;;;;;5033304;28;20409;-37
2023/03/21 06:02:57;;;;;;;3.50;3.05;;;6.20;99.90;;;;;;5045216;28;20041;-37
2023/03/21 06:05:39;;;;;;;3.50;1.95;;;6.30;99.90;;;;;;5049271;28;20052;-36
2023/03/21 06:08:12;;;;;;;4.88;2.63;;;6.30;99.90;;;;;;5045239;28;20057;-36
2023/03/21 06:10:39;;;;;;;6.55;2.30;;;6.40;99.90;;;;;;5030393;28;20048;-36
2023/03/21 06:13:07;;;;;;;3.70;1.52;;;6.50;99.90;;;;;;5045418;28;20416;-35
2023/03/21 06:15:36;;;;;;;6.30;3.08;;;6.70;99.90;;;;;;5049570;28;20428;-36
2023/03/21 06:18:17;;;;;;;4.68;2.47;;;6.80;99.90;;;;;;5047327;28;20061;-36
2023/03/21 06:20:56;;;;;;;2.47;2.28;;;7.00;99.90;;;;;;5042580;28;20080;-36
2023/03/21 06:23:23;;;;;;;6.25;2.60;;;7.10;99.90;;;;;;5042677;28;20520;-36
2023/03/21 06:25:51;;;;;;;4.60;2.17;;;7.10;99.90;;;;;;5043602;28;20270;-36
2023/03/21 06:28:19;;;;;;;4.38;2.25;;;7.20;99.90;;;;;;5042127;28;20056;-36
2023/03/21 06:30:47;;;;;;;3.05;2.35;;;7.20;99.90;;;;;;5044346;28;20045;-36
2023/03/21 06:33:19;;;;;;;3.90;3.00;;;7.20;99.90;;;;;;5042554;28;20564;-36
2023/03/21 06:35:52;;;;;;;4.68;2.42;;;7.40;99.90;;;;;;5043603;28;20064;-36
2023/03/21 06:38:19;;;;;;;3.85;2.50;;;7.50;99.90;;;;;;5042688;28;20052;-36
2023/03/21 06:40:49;;;;;;;3.80;2.25;;;7.70;99.90;;;;;;5042925;28;20049;-37
2023/03/21 06:43:17;;;;;;;2.72;2.53;;;7.80;99.90;;;;;;5042231;28;20045;-37
2023/03/21 06:45:45;;;;;;;7.25;5.90;;;7.80;99.90;;;;;;5041280;28;20068;-36
2023/03/21 06:48:13;;;;;;;4.70;4.05;;;7.80;99.90;;;;;;5043094;28;20057;-36
2023/03/21 06:50:48;;;;;;;4.82;4.20;;;7.90;99.90;;;;;;5042959;28;20521;-37
2023/03/21 06:53:17;;;;;;;3.67;3.03;;;8.00;99.90;;;;;;5039949;28;20049;-37
2023/03/21 06:56:12;;;;;;;8.27;3.50;;;8.10;99.90;;;;;;5040158;28;20369;-38
2023/03/21 06:58:41;;;;;;;7.65;3.90;;;8.10;99.90;;;;;;5041134;28;20045;-37
2023/03/21 07:01:15;;;;;;;8.10;3.90;;;8.20;99.90;;;;;;5042169;28;20053;-36
2023/03/21 07:03:55;;;;;;;8.43;6.28;;;8.20;99.90;;;;;;5043349;28;20056;-37
2023/03/21 07:06:27;;;;;;;18.70;3.80;;;8.20;99.90;;;;;;5042796;28;20049;-37
2023/03/21 07:08:55;;;;;;;3.60;3.05;;;8.30;99.90;;;;;;5042906;28;20048;-37
2023/03/21 07:11:24;;;;;;;4.38;3.85;;;8.50;99.90;;;;;;5042086;28;20045;-37
2023/03/21 07:13:52;;;;;;;9.57;5.45;;;8.50;99.90;;;;;;5042677;28;20473;-37
2023/03/21 07:16:23;;;;;;;9.50;5.10;;;8.70;99.90;;;;;;5044195;28;20075;-37
2023/03/21 07:18:51;;;;;;;7.65;4.43;;;8.70;99.90;;;;;;5042598;28;20048;-37
2023/03/21 07:21:19;;;;;;;3.20;2.88;;;8.70;99.90;;;;;;5038998;28;20363;-37
2023/03/21 07:23:49;;;;;;;6.43;4.30;;;8.80;99.90;;;;;;5039530;28;20044;-36
2023/03/21 07:26:17;;;;;;;3.47;3.17;;;8.80;99.90;;;;;;5043913;28;20045;-37
2023/03/21 07:28:45;;;;;;;6.25;4.45;;;8.90;99.90;;;;;;5041414;28;20044;-37
2023/03/21 07:31:15;;;;;;;5.03;3.50;;;9.00;99.90;;;;;;5021758;28;20045;-36
2023/03/21 07:33:42;;;;;;;5.28;3.88;;;9.00;99.90;;;;;;5036597;28;20544;-37
2023/03/21 07:36:14;;;;;;;4.03;3.65;;;9.10;99.90;;;;;;5039656;28;20056;-36
2023/03/21 07:38:43;;;;;;;5.47;4.97;;;9.20;99.90;;;;;;5039157;28;20055;-36
2023/03/21 07:41:11;;;;;;;5.90;4.75;;;9.30;99.90;;;;;;5037549;28;20059;-36
2023/03/21 07:43:39;;;;;;;8.65;4.57;;;9.30;99.90;;;;;;5035773;28;20505;-36
2023/03/21 07:46:09;;;;;;;7.55;4.80;;;9.40;99.90;;;;;;5036986;28;20080;-36
2023/03/21 07:48:38;;;;;;;4.70;3.65;;;9.50;99.90;;;;;;5038190;28;20277;-36
2023/03/21 07:51:06;;;;;;;7.00;4.65;;;9.60;99.90;;;;;;5038302;28;20055;-36
2023/03/21 07:53:35;;;;;;;5.38;3.80;;;9.60;99.90;;;;;;5034714;28;20084;-36
2023/03/21 07:56:03;;;;;;;3.75;3.45;;;9.70;99.90;;;;;;5040462;28;20557;-36
2023/03/21 07:58:33;;;;;;;6.50;4.03;;;9.90;99.90;;;;;;5035730;28;20591;-36
2023/03/21 08:01:01;;;;;;;5.18;4.13;;;10.00;99.90;;;;;;5041652;28;20057;-36
2023/03/21 08:03:31;;;;;;;4.10;3.30;;;10.00;99.90;;;;;;5042219;28;20623;-37
2023/03/21 08:06:02;;;;;;;3.93;2.60;;;10.00;99.90;;;;;;5038235;28;20049;-36
2023/03/21 08:08:30;;;;;;;5.05;4.47;;;10.00;99.90;;;;;;5034896;28;20057;-37
2023/03/21 08:10:57;;;;;;;4.03;3.70;;;10.30;99.90;;;;;;5033710;28;20056;-36
2023/03/21 08:13:26;;;;;;;6.47;4.55;;;10.40;99.90;;;;;;5041554;28;20057;-36
2023/03/21 08:15:54;;;;;;;4.28;3.42;;;10.40;99.90;;;;;;5042687;28;20234;-37
2023/03/21 08:18:21;;;;;;;3.58;2.95;;;10.40;99.90;;;;;;5044045;28;20612;-37
2023/03/21 08:20:56;;;;;;;5.53;4.30;;;10.50;99.90;;;;;;5041387;28;20052;-36
2023/03/21 08:23:25;;;;;;;3.88;3.55;;;10.60;99.90;;;;;;5039315;28;20048;-37
2023/03/21 08:25:54;;;;;;;4.75;4.05;;;10.60;99.90;;;;;;5040195;28;20577;-36
2023/03/21 08:28:22;;;;;;;5.65;3.75;;;10.70;99.90;;;;;;5039824;28;20457;-36
2023/03/21 08:30:50;;;;;;;3.58;3.08;;;10.70;99.90;;;;;;5039333;28;20083;-36
2023/03/21 08:33:18;;;;;;;4.53;2.92;;;10.80;99.90;;;;;;5039185;28;20059;-37
2023/03/21 08:35:46;;;;;;;7.07;3.25;;;10.90;99.90;;;;;;5039280;28;20057;-35
2023/03/21 08:38:14;;;;;;;3.50;3.25;;;10.80;99.90;;;;;;5038571;28;20508;-36
2023/03/21 08:40:41;;;;;;;3.92;3.13;;;10.90;99.90;;;;;;5041043;28;20057;-36
2023/03/21 08:43:09;;;;;;;3.42;3.13;;;10.90;99.90;;;;;;5038149;28;20064;-36
2023/03/21 08:45:37;;;;;;;3.10;2.80;;;10.80;99.90;;;;;;5037432;28;20057;-36
2023/03/21 08:48:05;;;;;;;3.97;3.13;;;10.80;99.90;;;;;;5037885;28;20547;-36
2023/03/21 08:50:32;;;;;;;3.55;3.25;;;10.80;99.90;;;;;;5038752;28;20100;-36
2023/03/21 08:53:00;;;;;;;4.68;3.17;;;10.70;99.90;;;;;;5039391;28;20457;-36
2023/03/21 08:55:27;;;;;;;2.97;2.78;;;10.80;99.90;;;;;;5038440;28;20506;-36
2023/03/21 08:57:56;;;;;;;4.07;3.53;;;10.90;99.90;;;;;;5038673;28;20440;-37
2023/03/21 09:00:24;;;;;;;4.50;3.88;;;10.90;99.90;;;;;;5040492;28;20052;-38
2023/03/21 09:02:53;;;;;;;4.50;3.60;;;11.20;99.90;;;;;;5036881;28;20703;-38
2023/03/21 09:05:21;;;;;;;3.10;2.75;;;11.40;99.90;;;;;;5036633;28;20064;-36
2023/03/21 09:07:49;;;;;;;4.45;3.80;;;11.40;99.90;;;;;;5039102;28;20052;-37
2023/03/21 09:10:18;;;;;;;3.63;2.88;;;11.60;99.90;;;;;;5036878;28;20404;-36
2023/03/21 09:12:50;;;;;;;6.93;4.15;;;11.80;99.90;;;;;;5036411;28;20064;-36
2023/03/21 09:15:20;;;;;;;4.60;3.78;;;11.80;99.90;;;;;;5036906;28;20045;-37
2023/03/21 09:17:51;;;;;;;3.67;3.42;;;11.90;99.90;;;;;;5034479;28;20052;-37
2023/03/21 09:20:24;;;;;;;7.60;5.85;;;12.20;99.90;;;;;;5037413;28;20503;-36
2023/03/21 09:22:53;;;;;;;3.20;2.90;;;12.30;99.90;;;;;;5040219;28;20060;-37
2023/03/21 09:25:20;;;;;;;3.72;3.42;;;12.40;99.90;;;;;;5042831;28;20056;-37
2023/03/21 09:27:50;;;;;;;4.43;3.67;;;12.00;99.90;;;;;;5041781;28;20053;-37
2023/03/21 09:30:21;;;;;;;9.15;3.35;;;12.00;99.90;;;;;;5040103;28;20303;-36
2023/03/21 09:32:54;;;;;;;4.38;3.97;;;12.20;99.90;;;;;;5040112;28;20057;-37
2023/03/21 09:35:23;;;;;;;4.75;3.47;;;12.10;99.90;;;;;;5041568;28;20048;-37
2023/03/21 09:37:51;;;;;;;3.72;3.08;;;12.00;99.90;;;;;;5039802;28;20075;-36
2023/03/21 09:40:53;;;;;;;7.50;2.90;;;12.00;99.90;;;;;;5040706;28;20063;-37
2023/03/21 09:43:48;;;;;;;4.53;3.83;;;12.00;99.90;;;;;;5039761;28;20056;-36
2023/03/21 09:46:20;;;;;;;3.70;3.40;;;12.00;99.90;;;;;;5040247;28;20075;-37
2023/03/21 09:48:58;;;;;;;3.92;3.55;;;11.90;99.90;;;;;;5037196;28;20496;-37
2023/03/21 09:51:33;;;;;;;3.00;2.75;;;11.90;99.90;;;;;;5040197;28;20048;-36
2023/03/21 09:54:07;;;;;;;3.95;3.65;;;11.90;99.90;;;;;;5037753;28;20041;-36
2023/03/21 09:56:37;;;;;;;2.92;2.72;;;11.90;99.90;;;;;;5042694;28;20059;-36
2023/03/21 09:59:07;;;;;;;3.60;3.30;;;11.90;99.90;;;;;;5040023;28;20496;-36
2023/03/21 10:01:40;;;;;;;3.13;2.43;;;11.90;99.90;;;;;;5041075;28;20420;-36
2023/03/21 10:04:14;;;;;;;5.10;3.30;;;11.90;99.90;;;;;;5043041;28;20318;-37
2023/03/21 10:06:44;;;;;;;3.00;2.78;;;11.90;99.90;;;;;;5040566;28;20049;-36
2023/03/21 10:09:23;;;;;;;6.53;3.17;;;12.00;99.90;;;;;;5041297;28;20056;-35
2023/03/21 10:12:07;;;;;;;3.40;3.00;;;12.00;99.90;;;;;;5027371;28;20045;-36
2023/03/21 10:14:45;;;;;;;4.32;3.78;;;12.10;99.90;;;;;;5037724;28;20052;-36
2023/03/21 10:17:26;;;;;;;5.05;3.95;;;12.30;99.90;;;;;;5040994;28;20053;-36
2023/03/21 10:20:15;;;;;;;8.60;7.90;;;12.20;99.90;;;;;;5017243;28;20555;-37
2023/03/21 10:22:46;;;;;;;3.25;2.78;;;12.20;99.90;;;;;;5035283;28;20056;-36
2023/03/21 10:25:19;;;;;;;4.70;4.30;;;12.30;99.90;;;;;;5043356;28;20053;-36
2023/03/21 10:27:48;;;;;;;3.28;2.95;;;12.60;99.90;;;;;;5036945;28;20060;-37
2023/03/21 10:30:44;;;;;;;3.17;2.85;;;12.60;99.90;;;;;;5043435;28;20049;-37
2023/03/21 10:33:19;;;;;;;3.78;3.20;;;12.70;99.90;;;;;;5038527;28;20060;-36
2023/03/21 10:35:54;;;;;;;3.80;3.38;;;12.80;99.90;;;;;;5041937;28;20049;-36
2023/03/21 10:38:24;;;;;;;3.88;3.47;;;12.80;99.90;;;;;;5042661;28;20049;-36
2023/03/21 10:40:53;;;;;;;4.85;4.10;;;12.80;99.90;;;;;;5041750;28;20049;-35
2023/03/21 10:43:26;;;;;;;2.70;2.50;;;12.70;99.90;;;;;;5038868;28;20542;-36
2023/03/21 10:45:56;;;;;;;3.40;3.15;;;12.90;99.90;;;;;;5040869;28;20387;-36
2023/03/21 10:48:24;;;;;;;2.80;2.33;;;13.00;99.90;;;;;;5043302;28;20049;-36
2023/03/21 10:50:55;;;;;;;3.33;3.03;;;13.10;99.90;;;;;;5045536;28;20048;-36
2023/03/21 10:53:31;;;;;;;3.67;3.38;;;13.00;99.90;;;;;;5039587;28;20059;-36
2023/03/21 10:56:00;;;;;;;2.72;2.53;;;12.90;99.90;;;;;;5043777;28;20056;-36
2023/03/21 10:58:32;;;;;;;3.58;2.83;;;13.10;99.90;;;;;;5038932;28;20048;-36
2023/03/21 11:01:05;;;;;;;3.85;3.15;;;13.40;99.90;;;;;;5040007;28;20080;-37
2023/03/21 11:03:37;;;;;;;4.13;3.03;;;13.50;99.90;;;;;;5042826;28;20040;-36
2023/03/21 11:06:08;;;;;;;2.92;2.60;;;13.50;99.90;;;;;;5041976;28;20133;-37
2023/03/21 11:08:42;;;;;;;2.40;2.20;;;13.40;99.90;;;;;;5053723;28;20055;-36
2023/03/21 11:11:28;;;;;;;2.70;2.50;;;13.40;99.90;;;;;;5048322;28;20369;-37
2023/03/21 11:14:05;;;;;;;4.13;3.72;;;13.30;99.90;;;;;;5044682;28;20053;-36
2023/03/21 11:16:42;;;;;;;3.08;2.80;;;13.10;99.90;;;;;;5038943;28;20060;-36
2023/03/21 11:19:16;;;;;;;3.03;2.72;;;13.00;99.90;;;;;;5040325;28;20040;-37
2023/03/21 11:21:44;;;;;;;3.38;2.42;;;13.20;99.90;;;;;;5037831;28;20053;-37
2023/03/21 11:24:15;;;;;;;3.33;2.97;;;13.20;99.90;;;;;;5044052;28;20131;-37
2023/03/21 11:26:46;;;;;;;2.80;2.60;;;13.30;99.90;;;;;;5041516;28;20049;-36
2023/03/21 11:29:20;;;;;;;6.18;3.08;;;13.40;99.90;;;;;;5041938;28;20064;-37
2023/03/21 11:31:48;;;;;;;4.15;3.85;;;13.40;99.90;;;;;;5043126;28;20052;-37
2023/03/21 11:34:46;;;;;;;3.08;2.47;;;13.50;99.90;;;;;;5046425;28;20075;-37
2023/03/21 11:37:24;;;;;;;2.55;2.33;;;13.70;99.90;;;;;;5038431;28;20052;-36
2023/03/21 11:40:05;;;;;;;4.25;3.03;;;13.80;99.90;;;;;;5012919;28;20049;-37
2023/03/21 11:42:41;;;;;;;3.20;2.90;;;13.80;99.90;;;;;;5042450;28;20132;-36
2023/03/21 11:45:14;;;;;;;7.00;4.28;;;13.70;99.90;;;;;;5027099;28;20288;-37
2023/03/21 11:47:42;;;;;;;2.97;2.72;;;13.50;99.90;;;;;;5047508;28;20059;-37
2023/03/21 11:50:23;;;;;;;2.97;2.78;;;13.70;99.90;;;;;;5043859;28;20060;-37
2023/03/21 11:53:20;;;;;;;3.50;3.20;;;13.80;99.90;;;;;;5045107;28;20048;-36
2023/03/21 11:55:56;;;;;;;3.42;3.17;;;13.60;99.90;;;;;;5018581;28;20417;-37
2023/03/21 11:59:00;;;;;;;3.30;3.00;;;13.70;99.90;;;;;;5020295;28;20394;-37
2023/03/21 12:01:40;;;;;;;4.28;3.47;;;13.90;99.90;;;;;;5017825;28;20056;-36
2023/03/21 12:04:27;;;;;;;3.42;3.17;;;14.30;99.90;;;;;;5018745;28;20060;-37
2023/03/21 12:07:19;;;;;;;3.17;2.83;;;14.30;99.90;;;;;;5034462;28;20048;-37
2023/03/21 12:10:11;;;;;;;3.95;3.63;;;14.30;99.90;;;;;;5041214;28;20056;-37
2023/03/21 12:12:53;;;;;;;5.40;3.53;;;13.90;99.90;;;;;;5036257;28;20061;-37
2023/03/21 12:15:44;;;;;;;10.65;3.13;;;14.10;99.90;;;;;;5042726;28;20063;-37
2023/03/21 12:18:46;;;;;;;3.28;3.05;;;14.30;99.90;;;;;;5040032;28;20094;-37
2023/03/21 12:21:28;;;;;;;5.60;3.45;;;14.50;99.90;;;;;;5036779;28;20513;-37
2023/03/21 12:24:19;;;;;;;4.13;3.38;;;14.60;99.90;;;;;;5032905;28;20528;-37
2023/03/21 12:27:05;;;;;;;3.13;2.90;;;14.80;99.90;;;;;;5045752;28;20549;-37
2023/03/21 12:29:52;;;;;;;3.70;3.35;;;14.70;99.90;;;;;;5040336;28;20075;-37
2023/03/21 12:32:23;;;;;;;3.17;2.95;;;14.70;99.90;;;;;;5041372;28;20057;-38
2023/03/21 12:34:53;;;;;;;3.42;3.13;;;14.50;99.90;;;;;;5040829;28;20456;-37
2023/03/21 12:37:27;;;;;;;4.40;3.42;;;14.40;99.90;;;;;;5043181;28;20052;-37
2023/03/21 12:40:15;;;;;;;2.78;2.45;;;14.10;99.90;;;;;;5038836;28;20060;-36
2023/03/21 12:43:03;;;;;;;3.47;3.00;;;14.00;99.90;;;;;;5040045;28;20346;-37
2023/03/21 12:45:36;;;;;;;4.25;2.95;;;14.40;99.90;;;;;;5042799;28;20079;-37
2023/03/21 12:48:19;;;;;;;5.82;3.22;;;14.70;99.90;;;;;;5042615;28;20064;-37
2023/03/21 12:50:50;;;;;;;4.07;3.22;;;14.60;99.90;;;;;;5049401;28;20052;-38
2023/03/21 12:53:28;;;;;;;7.25;3.28;;;14.80;99.90;;;;;;5047262;28;20436;-36
2023/03/21 12:56:01;;;;;;;3.13;2.75;;;15.00;99.90;;;;;;5045565;28;20513;-36
2023/03/21 12:58:34;;;;;;;4.05;2.92;;;15.00;99.90;;;;;;5041471;28;20057;-37
2023/03/21 13:01:04;;;;;;;3.03;2.83;;;15.10;99.90;;;;;;5047621;28;20552;-37
2023/03/21 13:03:38;;;;;;;3.40;3.10;;;15.10;99.90;;;;;;5041647;28;20052;-36
2023/03/21 13:06:11;;;;;;;3.90;2.45;;;15.30;99.90;;;;;;5047166;28;20048;-37
2023/03/21 13:09:05;;;;;;;4.22;3.85;;;15.30;99.90;;;;;;5047116;28;20518;-36
2023/03/21 13:11:34;;;;;;;25.30;6.35;;;15.60;99.90;;;;;;5040242;28;20351;-36
2023/03/21 13:14:07;;;;;;;5.68;3.25;;;15.90;99.90;;;;;;5043203;28;20049;-37
2023/03/21 13:16:39;;;;;;;3.28;2.88;;;16.10;99.90;;;;;;5040113;28;20049;-36
2023/03/21 13:19:30;;;;;;;3.00;2.67;;;16.00;99.90;;;;;;5044450;28;20056;-36
2023/03/21 13:22:20;;;;;;;;;;;15.90;99.90;;;;;;5039923;28;20429;-36
2023/03/21 13:24:54;;;;;;;17.88;4.95;;;15.80;99.90;;;;;;5043247;28;19931;-37
2023/03/21 13:27:31;;;;;;;3.08;2.80;;;16.00;99.90;;;;;;5044350;28;20044;-37
2023/03/21 13:30:05;;;;;;;7.47;3.35;;;15.80;99.90;;;;;;5042462;28;20037;-36
2023/03/21 13:32:34;;;;;;;2.92;2.65;;;15.70;99.90;;;;;;5040083;28;20513;-37